Time,TemperatureF,DewpointF,PressureIn,WindDirection,WindDirectionDegrees,WindSpeedMPH,WindSpeedGustMPH,Humidity,HourlyPrecipIn,Conditions,Clouds,dailyrainin,SolarRadiationWatts/m^2,SoftwareType,DateUTC
2013-03-20 00:02:00,50.0,48.0,-100.00,SSW,209,0.0,4.0,94,0.00,,,0.05,0.000000,,2013-03-20 07:02:00,
2013-03-20 00:32:00,50.0,49.0,-100.00,SSW,197,0.0,2.0,95,0.00,,,0.05,0.000000,,2013-03-20 07:32:00,
2013-03-20 00:42:00,50.0,49.0,-100.00,SSW,197,0.0,2.0,95,0.00,,,0.05,0.000000,,2013-03-20 07:42:00,
2013-03-20 00:52:00,50.0,49.0,-100.00,SSW,197,0.0,2.0,95,0.00,,,0.05,0.000000,,2013-03-20 07:52:00,
2013-03-20 01:02:00,50.0,49.0,-100.00,SSW,197,0.0,2.0,95,0.00,,,0.05,0.000000,,2013-03-20 08:02:00,
2013-03-20 01:32:00,51.0,50.0,-100.00,East,95,1.0,3.0,96,0.00,,,0.05,0.000000,,2013-03-20 08:32:00,
2013-03-20 01:42:00,51.0,50.0,-100.00,East,95,1.0,3.0,96,0.00,,,0.05,0.000000,,2013-03-20 08:42:00,
2013-03-20 01:52:00,51.0,50.0,-100.00,East,95,1.0,3.0,96,0.00,,,0.05,0.000000,,2013-03-20 08:52:00,
2013-03-20 02:02:00,51.0,50.0,-100.00,East,95,1.0,3.0,96,0.00,,,0.05,0.000000,,2013-03-20 09:02:00,
2013-03-20 02:33:00,50.0,49.0,-100.00,NE,35,1.0,4.0,96,0.00,,,0.05,0.000000,,2013-03-20 09:33:00,
2013-03-20 02:43:00,50.0,49.0,-100.00,NE,35,1.0,4.0,96,0.00,,,0.05,0.000000,,2013-03-20 09:43:00,
2013-03-20 02:53:00,50.0,49.0,-100.00,NE,35,1.0,4.0,96,0.00,,,0.05,0.000000,,2013-03-20 09:53:00,
2013-03-20 03:02:00,50.0,49.0,-100.00,NE,35,1.0,4.0,96,0.00,,,0.05,0.000000,,2013-03-20 10:02:00,
2013-03-20 03:33:00,50.0,49.0,-100.00,SW,236,1.0,3.0,96,0.00,,,0.05,0.000000,,2013-03-20 10:33:00,
2013-03-20 03:43:00,50.0,49.0,-100.00,SW,236,1.0,3.0,96,0.00,,,0.05,0.000000,,2013-03-20 10:43:00,
2013-03-20 03:53:00,50.0,49.0,-100.00,SW,236,1.0,3.0,96,0.00,,,0.05,0.000000,,2013-03-20 10:53:00,
2013-03-20 04:02:00,50.0,49.0,-100.00,SW,236,1.0,3.0,96,0.00,,,0.05,0.000000,,2013-03-20 11:02:00,
2013-03-20 04:32:00,51.0,50.0,-100.00,East,83,1.0,3.0,96,0.00,,,0.05,0.000000,,2013-03-20 11:32:00,
2013-03-20 04:42:00,51.0,50.0,-100.00,East,83,1.0,3.0,96,0.00,,,0.05,0.000000,,2013-03-20 11:42:00,
2013-03-20 04:52:00,51.0,50.0,-100.00,East,83,1.0,3.0,96,0.00,,,0.05,0.000000,,2013-03-20 11:52:00,
2013-03-20 05:02:00,51.0,50.0,-100.00,East,83,1.0,3.0,96,0.00,,,0.05,0.000000,,2013-03-20 12:02:00,
2013-03-20 05:33:00,51.0,50.0,-100.00,SSE,147,1.0,5.0,96,0.00,,,-99.99,0.000000,,2013-03-20 12:33:00,
2013-03-20 05:42:00,51.0,50.0,-100.00,SSE,147,1.0,5.0,96,0.00,,,-99.99,0.000000,,2013-03-20 12:42:00,
2013-03-20 05:52:00,51.0,50.0,-100.00,SSE,147,1.0,5.0,96,0.00,,,-99.99,0.000000,,2013-03-20 12:52:00,
2013-03-20 06:02:00,51.0,50.0,-100.00,SSE,147,1.0,5.0,96,0.00,,,-99.99,0.000000,,2013-03-20 13:02:00,
2013-03-20 06:32:00,50.0,49.0,-100.00,SW,217,0.0,5.0,96,0.00,,,0.05,0.000000,,2013-03-20 13:32:00,
2013-03-20 06:42:00,50.0,49.0,-100.00,SW,217,0.0,5.0,96,0.00,,,0.05,0.000000,,2013-03-20 13:42:00,
2013-03-20 06:53:00,50.0,49.0,-100.00,SW,217,0.0,5.0,96,0.00,,,0.05,0.000000,,2013-03-20 13:53:00,
2013-03-20 07:02:00,50.0,49.0,-100.00,SW,217,0.0,5.0,96,0.00,,,0.05,0.000000,,2013-03-20 14:02:00,
2013-03-20 07:23:00,50.0,49.0,-100.00,SW,228,0.0,2.0,97,0.00,,,0.05,0.000000,,2013-03-20 14:23:00,
2013-03-20 07:34:00,50.0,49.0,-100.00,SW,228,0.0,2.0,97,0.00,,,0.05,0.000000,,2013-03-20 14:34:00,
2013-03-20 07:43:00,50.0,49.0,-100.00,SW,228,0.0,2.0,97,0.00,,,0.05,0.000000,,2013-03-20 14:43:00,
2013-03-20 07:52:00,50.0,49.0,-100.00,SW,228,0.0,2.0,97,0.00,,,0.05,0.000000,,2013-03-20 14:52:00,
2013-03-20 08:02:00,50.0,49.0,-100.00,SW,228,0.0,2.0,97,0.00,,,0.05,0.000000,,2013-03-20 15:02:00,
2013-03-20 08:33:00,50.0,49.0,-100.00,SW,226,0.0,3.0,97,0.00,,,0.05,20.000000,,2013-03-20 15:33:00,
2013-03-20 08:43:00,50.0,49.0,-100.00,SW,226,0.0,3.0,97,0.00,,,0.05,20.000000,,2013-03-20 15:43:00,
2013-03-20 08:53:00,50.0,49.0,-100.00,SW,226,0.0,3.0,97,0.00,,,0.05,20.000000,,2013-03-20 15:53:00,
2013-03-20 09:02:00,50.0,49.0,-100.00,SW,226,0.0,3.0,97,0.00,,,0.05,20.000000,,2013-03-20 16:02:00,
2013-03-20 09:23:00,54.0,51.0,-100.00,South,191,1.0,3.0,91,0.00,,,0.05,101.000000,,2013-03-20 16:23:00,
2013-03-20 09:33:00,54.0,51.0,-100.00,South,191,1.0,3.0,91,0.00,,,0.05,101.000000,,2013-03-20 16:33:00,
2013-03-20 09:43:00,54.0,51.0,-100.00,South,191,1.0,3.0,91,0.00,,,0.05,101.000000,,2013-03-20 16:43:00,
2013-03-20 09:53:00,54.0,51.0,-100.00,South,191,1.0,3.0,91,0.00,,,0.05,101.000000,,2013-03-20 16:53:00,
2013-03-20 10:32:00,58.0,52.0,-100.00,SE,134,0.0,3.0,81,0.00,,,0.05,188.000000,,2013-03-20 17:32:00,
2013-03-20 10:42:00,58.0,52.0,-100.00,SE,134,0.0,3.0,81,0.00,,,0.05,188.000000,,2013-03-20 17:42:00,
2013-03-20 10:52:00,58.0,52.0,-100.00,SE,134,0.0,3.0,81,0.00,,,0.05,188.000000,,2013-03-20 17:52:00,
2013-03-20 11:02:00,58.0,52.0,-100.00,SE,134,0.0,3.0,81,0.00,,,0.05,188.000000,,2013-03-20 18:02:00,
2013-03-20 11:34:00,64.0,52.0,-100.00,ESE,103,2.0,6.0,64,0.00,,,-99.99,390.000000,,2013-03-20 18:34:00,
2013-03-20 11:43:00,64.0,52.0,-100.00,ESE,103,2.0,6.0,64,0.00,,,-99.99,390.000000,,2013-03-20 18:43:00,
2013-03-20 11:52:00,64.0,52.0,-100.00,ESE,103,2.0,6.0,64,0.00,,,-99.99,390.000000,,2013-03-20 18:52:00,
2013-03-20 12:01:00,64.0,52.0,-100.00,ESE,103,2.0,6.0,64,0.00,,,-99.99,390.000000,,2013-03-20 19:01:00,
2013-03-20 12:32:00,65.0,49.0,-100.00,East,82,5.0,12.0,56,0.00,,,0.05,524.000000,,2013-03-20 19:32:00,
2013-03-20 12:42:00,65.0,49.0,-100.00,East,82,5.0,12.0,56,0.00,,,0.05,524.000000,,2013-03-20 19:42:00,
2013-03-20 12:53:00,65.0,49.0,-100.00,East,82,5.0,12.0,56,0.00,,,0.05,524.000000,,2013-03-20 19:53:00,
2013-03-20 13:02:00,65.0,49.0,-100.00,East,82,5.0,12.0,56,0.00,,,0.05,524.000000,,2013-03-20 20:02:00,
2013-03-20 13:32:00,66.0,46.0,-100.00,ESE,106,5.0,9.0,49,0.00,,,0.05,490.000000,,2013-03-20 20:32:00,
2013-03-20 13:42:00,66.0,46.0,-100.00,ESE,106,5.0,9.0,49,0.00,,,0.05,490.000000,,2013-03-20 20:42:00,
2013-03-20 13:52:00,66.0,46.0,-100.00,ESE,106,5.0,9.0,49,0.00,,,0.05,490.000000,,2013-03-20 20:52:00,
2013-03-20 14:01:00,66.0,46.0,-100.00,ESE,106,5.0,9.0,49,0.00,,,0.05,490.000000,,2013-03-20 21:01:00,
2013-03-20 14:33:00,69.0,35.0,-100.00,East,84,3.0,8.0,29,0.00,,,0.05,353.000000,,2013-03-20 21:33:00,
2013-03-20 15:33:00,67.0,46.0,-100.00,East,99,5.0,9.0,47,0.00,,,0.05,304.000000,,2013-03-20 22:33:00,
2013-03-20 15:43:00,67.0,46.0,-100.00,East,99,5.0,9.0,47,0.00,,,0.05,304.000000,,2013-03-20 22:43:00,
2013-03-20 15:52:00,67.0,46.0,-100.00,East,99,5.0,9.0,47,0.00,,,0.05,304.000000,,2013-03-20 22:52:00,
2013-03-20 16:02:00,67.0,46.0,-100.00,East,99,5.0,9.0,47,0.00,,,0.05,304.000000,,2013-03-20 23:02:00,
2013-03-20 16:23:00,67.0,46.0,-100.00,East,82,4.0,11.0,47,0.00,,,0.05,224.000000,,2013-03-20 23:23:00,
2013-03-20 16:33:00,67.0,46.0,-100.00,East,82,4.0,11.0,47,0.00,,,0.05,224.000000,,2013-03-20 23:33:00,
2013-03-20 16:43:00,67.0,46.0,-100.00,East,82,4.0,11.0,47,0.00,,,0.05,224.000000,,2013-03-20 23:43:00,
2013-03-20 16:52:00,67.0,46.0,-100.00,East,82,4.0,11.0,47,0.00,,,0.05,224.000000,,2013-03-20 23:52:00,
2013-03-20 17:02:00,67.0,46.0,-100.00,East,82,4.0,11.0,47,0.00,,,0.05,224.000000,,2013-03-21 00:02:00,
2013-03-20 17:33:00,61.0,49.0,-100.00,East,83,4.0,11.0,64,0.01,,,0.06,170.000000,,2013-03-21 00:33:00,
2013-03-20 17:42:00,61.0,49.0,-100.00,East,83,4.0,11.0,64,0.01,,,0.06,170.000000,,2013-03-21 00:42:00,
2013-03-20 17:52:00,61.0,49.0,-100.00,East,83,4.0,11.0,64,0.01,,,0.06,170.000000,,2013-03-21 00:52:00,
2013-03-20 18:02:00,61.0,49.0,-100.00,East,83,4.0,11.0,64,0.01,,,0.06,170.000000,,2013-03-21 01:02:00,
2013-03-20 18:33:00,61.0,49.0,-100.00,NNW,330,0.0,8.0,64,0.00,,,0.06,89.000000,,2013-03-21 01:33:00,
2013-03-20 18:42:00,61.0,49.0,-100.00,NNW,330,0.0,8.0,64,0.00,,,0.06,89.000000,,2013-03-21 01:42:00,
2013-03-20 18:52:00,61.0,49.0,-100.00,NNW,330,0.0,8.0,64,0.00,,,0.06,89.000000,,2013-03-21 01:52:00,
2013-03-20 19:02:00,61.0,49.0,-100.00,NNW,330,0.0,8.0,64,0.00,,,0.06,89.000000,,2013-03-21 02:02:00,
2013-03-20 19:33:00,59.0,48.0,-100.00,East,86,5.0,10.0,67,0.00,,,0.06,49.000000,,2013-03-21 02:33:00,
2013-03-20 19:42:00,59.0,48.0,-100.00,East,86,5.0,10.0,67,0.00,,,0.06,49.000000,,2013-03-21 02:42:00,
2013-03-20 19:52:00,59.0,48.0,-100.00,East,86,5.0,10.0,67,0.00,,,0.06,49.000000,,2013-03-21 02:52:00,
2013-03-20 20:02:00,59.0,48.0,-100.00,East,86,5.0,10.0,67,0.00,,,0.06,49.000000,,2013-03-21 03:02:00,
2013-03-20 20:33:00,55.0,49.0,-100.00,SW,214,0.0,6.0,81,0.00,,,0.04,2.000000,,2013-03-21 03:33:00,
2013-03-20 20:43:00,55.0,49.0,-100.00,SW,214,0.0,6.0,81,0.00,,,0.04,2.000000,,2013-03-21 03:43:00,
2013-03-20 20:53:00,55.0,49.0,-100.00,SW,214,0.0,6.0,81,0.00,,,0.04,2.000000,,2013-03-21 03:53:00,
2013-03-20 21:02:00,55.0,49.0,-100.00,SW,214,0.0,6.0,81,0.00,,,0.04,2.000000,,2013-03-21 04:02:00,
2013-03-20 21:23:00,54.0,50.0,-100.00,SE,137,0.0,2.0,85,0.00,,,0.01,0.000000,,2013-03-21 04:23:00,
2013-03-20 21:33:00,54.0,50.0,-100.00,SE,137,0.0,2.0,85,0.00,,,0.01,0.000000,,2013-03-21 04:33:00,
2013-03-20 21:43:00,54.0,50.0,-100.00,SE,137,0.0,2.0,85,0.00,,,0.01,0.000000,,2013-03-21 04:43:00,
2013-03-20 21:53:00,54.0,50.0,-100.00,SE,137,0.0,2.0,85,0.00,,,0.01,0.000000,,2013-03-21 04:53:00,
2013-03-20 22:02:00,54.0,50.0,-100.00,SE,137,0.0,2.0,85,0.00,,,0.01,0.000000,,2013-03-21 05:02:00,
2013-03-20 22:22:00,51.0,49.0,-100.00,East,99,1.0,4.0,92,0.00,,,0.01,0.000000,,2013-03-21 05:22:00,
2013-03-20 22:33:00,51.0,49.0,-100.00,East,99,1.0,4.0,92,0.00,,,0.01,0.000000,,2013-03-21 05:33:00,
2013-03-20 22:44:00,51.0,49.0,-100.00,East,99,1.0,4.0,92,0.00,,,0.01,0.000000,,2013-03-21 05:44:00,
2013-03-20 22:52:00,51.0,49.0,-100.00,East,99,1.0,4.0,92,0.00,,,0.01,0.000000,,2013-03-21 05:52:00,
2013-03-20 23:02:00,51.0,49.0,-100.00,East,99,1.0,4.0,92,0.00,,,0.01,0.000000,,2013-03-21 06:02:00,
2013-03-20 23:23:00,48.0,46.0,-100.00,SW,233,1.0,2.0,94,0.00,,,0.01,0.000000,,2013-03-21 06:23:00,
2013-03-20 23:32:00,48.0,46.0,-100.00,SW,233,1.0,2.0,94,0.00,,,0.01,0.000000,,2013-03-21 06:32:00,
2013-03-20 23:42:00,48.0,46.0,-100.00,SW,233,1.0,2.0,94,0.00,,,0.01,0.000000,,2013-03-21 06:42:00,
2013-03-20 23:52:00,48.0,46.0,-100.00,SW,233,1.0,2.0,94,0.00,,,0.01,0.000000,,2013-03-21 06:52:00,